Time;durP1;ratioP1;P1;durP2;ratioP2;P2;SDS_P1;SDS_P2;PMS_P1;PMS_P2;Temp;Humidity;BMP_temperature;BMP_pressure;BME280_temperature;BME280_humidity;BME280_pressure;Samples;Min_cycle;Max_cycle;Signal;HPM_P1;HPM_P2
2022/06/03 00:02:10;;;;;;;14.03;9.10;;;13.10;66.20;;;;;;5052653;28;46385;-63
2022/06/03 00:04:54;;;;;;;13.30;9.93;;;13.10;66.10;;;;;;5050839;28;46385;-61
2022/06/03 00:07:44;;;;;;;19.30;10.07;;;13.10;66.20;;;;;;5049941;28;46568;-62
2022/06/03 00:10:30;;;;;;;13.93;9.70;;;13.00;66.50;;;;;;5053455;28;46405;-62
2022/06/03 00:13:20;;;;;;;16.20;10.23;;;13.00;66.40;;;;;;5050519;28;46409;-62
2022/06/03 00:16:06;;;;;;;14.20;9.90;;;13.00;66.50;;;;;;5052610;28;46458;-62
2022/06/03 00:18:48;;;;;;;14.23;11.53;;;13.00;66.60;;;;;;5051574;28;47179;-60
2022/06/03 00:21:20;;;;;;;19.00;12.83;;;13.00;66.50;;;;;;5065478;28;46401;-61
2022/06/03 00:24:21;;;;;;;18.53;13.67;;;12.90;67.10;;;;;;5050078;28;46456;-61
2022/06/03 00:26:52;;;;;;;18.43;12.50;;;12.90;67.10;;;;;;5049784;28;46434;-62
2022/06/03 00:29:34;;;;;;;22.03;13.17;;;12.90;67.10;;;;;;5050750;28;47166;-62
2022/06/03 00:32:26;;;;;;;23.60;14.23;;;13.00;67.20;;;;;;5049252;28;45789;-61
2022/06/03 00:35:10;;;;;;;13.07;10.87;;;13.00;67.10;;;;;;5049881;28;46416;-62
2022/06/03 00:37:48;;;;;;;17.30;11.80;;;13.00;67.10;;;;;;5049985;28;46392;-61
2022/06/03 00:40:26;;;;;;;13.40;10.83;;;12.90;67.10;;;;;;5050304;28;46701;-62
2022/06/03 00:43:00;;;;;;;13.33;8.43;;;12.90;67.10;;;;;;5050527;28;46598;-61
2022/06/03 00:45:46;;;;;;;27.13;12.20;;;12.80;67.00;;;;;;5050171;28;46484;-61
2022/06/03 00:48:46;;;;;;;21.50;10.37;;;12.80;67.00;;;;;;5051277;28;46351;-61
2022/06/03 00:51:39;;;;;;;17.90;11.30;;;12.80;67.00;;;;;;5051182;28;47067;-61
2022/06/03 00:54:26;;;;;;;25.00;13.97;;;12.70;67.30;;;;;;5048400;28;46512;-62
2022/06/03 00:57:14;;;;;;;14.80;12.03;;;12.70;66.90;;;;;;5046039;28;46349;-61
2022/06/03 00:59:54;;;;;;;12.57;10.53;;;12.70;67.30;;;;;;5045804;28;46426;-62
2022/06/03 01:02:38;;;;;;;16.50;11.47;;;12.80;67.40;;;;;;5048815;28;47063;-61
2022/06/03 01:05:26;;;;;;;14.70;9.70;;;12.70;67.10;;;;;;5047971;28;46365;-61
2022/06/03 01:08:24;;;;;;;24.37;10.30;;;12.70;67.30;;;;;;5050083;28;46315;-62
2022/06/03 01:11:17;;;;;;;20.73;10.00;;;12.70;67.50;;;;;;5048211;28;46461;-62
2022/06/03 01:14:00;;;;;;;14.73;8.87;;;12.60;67.40;;;;;;5048096;28;47231;-61
2022/06/03 01:16:59;;;;;;;15.17;9.47;;;12.60;67.60;;;;;;5046654;28;46307;-62
2022/06/03 01:19:35;;;;;;;12.23;9.60;;;12.60;67.50;;;;;;5046988;28;46453;-61
2022/06/03 01:22:31;;;;;;;19.97;8.80;;;12.60;67.20;;;;;;5050977;28;46620;-61
2022/06/03 01:25:24;;;;;;;13.73;9.00;;;12.50;67.30;;;;;;5052396;28;46234;-61
2022/06/03 01:28:25;;;;;;;14.93;9.17;;;12.40;67.40;;;;;;5084387;27;46393;-61
2022/06/03 01:31:00;;;;;;;19.13;9.40;;;12.30;67.80;;;;;;5051663;28;46445;-61
2022/06/03 01:33:49;;;;;;;14.60;10.13;;;12.30;67.70;;;;;;5052152;28;45887;-62
2022/06/03 01:36:20;;;;;;;16.00;11.00;;;12.20;67.90;;;;;;5049350;28;46452;-61
2022/06/03 01:39:05;;;;;;;15.70;11.20;;;12.20;67.60;;;;;;5049361;28;45865;-61
2022/06/03 01:42:00;;;;;;;15.33;11.03;;;12.20;67.60;;;;;;5049478;28;45834;-61
2022/06/03 01:44:44;;;;;;;19.77;12.03;;;12.30;67.50;;;;;;5050394;28;46870;-61
2022/06/03 01:47:30;;;;;;;12.33;9.73;;;12.30;67.20;;;;;;5047223;28;46398;-62
2022/06/03 01:49:58;;;;;;;15.40;10.70;;;12.20;67.20;;;;;;5046957;28;46430;-60
2022/06/03 01:52:42;;;;;;;15.07;10.87;;;12.20;67.40;;;;;;5052715;28;46673;-61
2022/06/03 01:55:45;;;;;;;12.27;9.80;;;12.30;67.50;;;;;;5046996;28;46498;-60
2022/06/03 01:58:26;;;;;;;15.40;11.20;;;12.30;67.50;;;;;;5051922;28;47321;-62
2022/06/03 02:01:23;;;;;;;13.37;10.13;;;12.40;67.30;;;;;;5057699;28;45852;-62
2022/06/03 02:04:28;;;;;;;12.73;9.63;;;12.40;67.30;;;;;;5045483;28;46589;-60
2022/06/03 02:07:15;;;;;;;12.90;10.13;;;12.30;67.30;;;;;;5050713;28;46496;-61
2022/06/03 02:10:15;;;;;;;22.70;12.17;;;12.30;67.30;;;;;;5050923;28;46415;-61
2022/06/03 02:13:25;;;;;;;17.97;12.47;;;12.30;67.30;;;;;;5049808;28;46459;-61
2022/06/03 02:16:15;;;;;;;18.43;13.07;;;12.40;67.00;;;;;;5037959;28;46529;-62
2022/06/03 02:18:50;;;;;;;16.83;12.90;;;12.50;66.80;;;;;;5046487;28;46365;-61
2022/06/03 02:21:18;;;;;;;22.63;13.10;;;12.50;67.00;;;;;;5050703;28;46118;-61
2022/06/03 02:24:02;;;;;;;25.60;13.37;;;12.50;67.20;;;;;;5049359;28;46297;-61
2022/06/03 02:26:50;;;;;;;21.43;15.57;;;12.50;67.20;;;;;;5053382;28;46279;-62
2022/06/03 02:33:08;;;;;;;15.00;11.80;;;12.50;67.60;;;;;;5050442;28;46426;-61
2022/06/03 02:35:55;;;;;;;15.40;11.50;;;12.50;67.60;;;;;;5052466;28;46350;-62
2022/06/03 02:38:36;;;;;;;16.40;12.20;;;12.50;67.70;;;;;;5052245;28;46492;-61
2022/06/03 02:41:20;;;;;;;16.77;12.40;;;12.50;67.60;;;;;;5047750;28;46445;-61
2022/06/03 02:44:17;;;;;;;16.73;11.57;;;12.60;67.40;;;;;;5051115;28;47002;-61
2022/06/03 02:47:01;;;;;;;14.40;10.57;;;12.70;66.90;;;;;;5050154;28;46323;-61
2022/06/03 02:49:45;;;;;;;14.73;9.50;;;12.80;67.00;;;;;;5052594;28;46885;-62
2022/06/03 02:52:38;;;;;;;16.97;8.53;;;12.70;67.00;;;;;;5053809;28;46532;-62
2022/06/03 02:55:04;;;;;;;13.90;8.73;;;12.70;66.90;;;;;;5050457;28;46751;-62
2022/06/03 02:57:48;;;;;;;12.80;10.67;;;12.70;66.90;;;;;;5051549;28;45844;-61
2022/06/03 03:00:29;;;;;;;16.53;10.37;;;12.70;66.90;;;;;;5048315;28;45824;-61
2022/06/03 03:03:08;;;;;;;12.70;9.13;;;12.70;66.90;;;;;;5051453;28;46337;-61
2022/06/03 03:06:11;;;;;;;17.03;11.47;;;12.80;67.00;;;;;;5051404;28;47341;-61
2022/06/03 03:09:10;;;;;;;14.40;11.70;;;12.80;67.00;;;;;;5050392;28;46397;-61
2022/06/03 03:12:02;;;;;;;16.33;12.37;;;12.80;67.00;;;;;;5048968;28;46526;-60
2022/06/03 03:14:46;;;;;;;14.03;11.20;;;12.80;67.00;;;;;;5039026;28;46554;-62
2022/06/03 03:17:29;;;;;;;16.93;12.00;;;12.90;67.00;;;;;;5052764;28;47977;-61
2022/06/03 03:20:34;;;;;;;14.80;12.13;;;13.00;67.10;;;;;;5050111;28;46257;-61
2022/06/03 03:23:03;;;;;;;16.40;13.53;;;13.20;66.70;;;;;;5050098;28;46561;-61
2022/06/03 03:25:31;;;;;;;17.03;13.07;;;13.30;66.10;;;;;;5052792;28;46425;-61
2022/06/03 03:28:30;;;;;;;18.43;12.80;;;13.40;65.90;;;;;;5049744;28;47272;-61
2022/06/03 03:30:59;;;;;;;15.80;11.83;;;13.50;66.00;;;;;;5051549;28;46445;-62
2022/06/03 03:33:36;;;;;;;15.10;11.80;;;13.60;65.90;;;;;;5051151;28;46800;-61
2022/06/03 03:36:08;;;;;;;19.93;11.97;;;13.60;65.70;;;;;;5053093;28;46507;-61
2022/06/03 03:39:15;;;;;;;14.40;10.77;;;13.70;65.90;;;;;;5047983;28;46406;-62
2022/06/03 03:41:59;;;;;;;13.30;8.70;;;13.60;65.80;;;;;;5051808;28;45829;-62
2022/06/03 03:44:33;;;;;;;13.60;8.77;;;13.60;66.20;;;;;;5049381;28;46326;-62
2022/06/03 03:47:17;;;;;;;9.50;8.13;;;13.50;66.40;;;;;;5055221;28;46561;-61
2022/06/03 03:50:04;;;;;;;11.43;8.80;;;13.40;66.60;;;;;;5054325;28;46446;-63
2022/06/03 03:52:41;;;;;;;11.87;9.20;;;13.40;66.70;;;;;;5053908;28;46508;-62
2022/06/03 03:55:23;;;;;;;16.47;10.90;;;13.40;66.70;;;;;;5055604;28;46402;-61
2022/06/03 03:58:00;;;;;;;14.00;10.33;;;13.30;66.90;;;;;;5050566;28;46326;-61
2022/06/03 04:00:44;;;;;;;14.50;11.10;;;13.30;67.40;;;;;;5051835;28;46453;-62
2022/06/03 04:03:48;;;;;;;15.27;11.03;;;13.20;67.40;;;;;;5051016;28;46635;-62
2022/06/03 04:06:13;;;;;;;21.70;11.90;;;13.30;67.50;;;;;;5052392;28;46353;-61
2022/06/03 04:09:00;;;;;;;19.30;12.90;;;13.40;66.70;;;;;;5051146;28;46509;-62
2022/06/03 04:11:36;;;;;;;13.80;11.20;;;13.50;66.30;;;;;;5048828;28;48443;-61
2022/06/03 04:14:45;;;;;;;16.87;11.40;;;13.80;65.70;;;;;;5053911;28;46518;-62
2022/06/03 04:17:56;;;;;;;17.80;11.67;;;14.00;65.40;;;;;;5046163;28;46547;-63
2022/06/03 04:20:36;;;;;;;11.73;9.33;;;14.10;64.90;;;;;;5048960;28;46414;-61
2022/06/03 04:23:52;;;;;;;18.60;9.70;;;14.30;64.50;;;;;;5045529;28;47287;-61
2022/06/03 04:26:39;;;;;;;16.13;10.27;;;14.50;64.30;;;;;;5033003;28;46672;-61
2022/06/03 04:29:34;;;;;;;19.13;8.00;;;14.60;64.00;;;;;;5031947;28;46404;-62
2022/06/03 04:32:24;;;;;;;10.63;8.10;;;14.50;64.10;;;;;;5046767;28;46626;-61
2022/06/03 04:35:23;;;;;;;17.67;8.70;;;14.60;64.30;;;;;;5053419;28;46647;-61
2022/06/03 04:38:24;;;;;;;17.37;9.10;;;14.70;64.30;;;;;;5053286;28;46449;-62
2022/06/03 04:41:04;;;;;;;22.33;9.27;;;14.80;64.10;;;;;;5052786;28;46519;-63
2022/06/03 04:43:41;;;;;;;18.30;8.27;;;14.90;64.00;;;;;;5056919;28;46337;-62
2022/06/03 04:46:45;;;;;;;9.97;7.20;;;16.40;62.20;;;;;;5053426;28;47206;-62
2022/06/03 04:49:31;;;;;;;10.80;6.53;;;16.60;60.70;;;;;;5050641;28;46389;-61
2022/06/03 04:52:18;;;;;;;12.53;6.33;;;18.20;59.20;;;;;;5057081;28;46349;-61
2022/06/03 04:55:22;;;;;;;7.57;5.70;;;19.40;56.20;;;;;;5056151;28;46413;-62
2022/06/03 04:58:12;;;;;;;8.47;5.90;;;20.60;52.70;;;;;;5052361;28;46610;-62
2022/06/03 05:01:01;;;;;;;9.83;5.80;;;21.60;50.30;;;;;;5050389;28;46340;-61
2022/06/03 05:03:46;;;;;;;11.70;5.40;;;22.90;47.30;;;;;;5051184;28;45852;-61
2022/06/03 05:06:56;;;;;;;9.90;5.73;;;24.00;45.10;;;;;;5052350;28;46396;-61
2022/06/03 05:09:57;;;;;;;10.73;5.60;;;25.10;41.00;;;;;;5053000;28;47142;-61
2022/06/03 05:13:11;;;;;;;9.57;6.27;;;26.10;37.90;;;;;;5050878;28;46310;-62
2022/06/03 05:16:07;;;;;;;9.33;6.10;;;26.90;35.00;;;;;;5051400;28;46567;-62
2022/06/03 05:18:51;;;;;;;6.87;5.20;;;27.20;32.80;;;;;;5052727;28;46586;-62
2022/06/03 05:21:42;;;;;;;7.87;6.20;;;27.80;30.70;;;;;;5052372;28;46366;-60
2022/06/03 05:24:29;;;;;;;7.50;5.40;;;28.10;29.40;;;;;;5048168;28;45822;-60
2022/06/03 05:27:20;;;;;;;8.90;5.60;;;28.30;29.10;;;;;;5047706;28;46447;-61
2022/06/03 05:30:06;;;;;;;9.27;5.97;;;28.70;27.90;;;;;;5050164;28;46378;-60
2022/06/03 05:32:52;;;;;;;10.17;6.97;;;29.30;27.70;;;;;;5047990;28;46949;-60
2022/06/03 05:35:24;;;;;;;8.47;5.47;;;28.80;28.00;;;;;;5053815;28;46441;-59
2022/06/03 05:38:31;;;;;;;7.23;5.70;;;29.10;26.80;;;;;;5051347;28;46412;-60
2022/06/03 05:42:23;;;;;;;9.70;4.87;;;29.80;23.90;;;;;;5056295;28;46662;-61
2022/06/03 05:44:04;;;;;;;7.93;5.50;;;30.10;24.40;;;;;;5051131;28;46302;-61
2022/06/03 05:46:46;;;;;;;5.93;4.70;;;29.10;24.80;;;;;;5055342;28;46418;-61
2022/06/03 05:49:40;;;;;;;7.60;5.70;;;28.60;25.30;;;;;;5052310;28;46314;-61
2022/06/03 05:52:24;;;;;;;7.47;5.53;;;26.40;29.00;;;;;;5054065;28;46354;-61
2022/06/03 05:55:05;;;;;;;12.30;6.03;;;25.10;31.40;;;;;;5056104;28;46411;-60
2022/06/03 05:57:57;;;;;;;9.00;6.50;;;24.20;33.00;;;;;;5054782;28;46418;-62
2022/06/03 06:00:50;;;;;;;8.93;6.23;;;23.30;34.20;;;;;;5050570;28;46477;-62
2022/06/03 06:03:35;;;;;;;13.73;7.43;;;22.40;36.30;;;;;;5053669;28;46706;-62
2022/06/03 06:06:38;;;;;;;13.30;7.37;;;21.70;37.70;;;;;;5050949;28;46338;-61
2022/06/03 06:09:40;;;;;;;9.67;7.03;;;21.40;38.60;;;;;;5050780;28;46335;-62
2022/06/03 06:12:19;;;;;;;10.77;7.10;;;21.10;39.40;;;;;;5065921;28;46366;-62
2022/06/03 06:15:03;;;;;;;11.97;7.87;;;20.60;40.20;;;;;;5053763;28;46315;-61
2022/06/03 06:17:31;;;;;;;19.73;8.73;;;20.20;41.50;;;;;;5048903;28;46323;-61
2022/06/03 06:20:42;;;;;;;12.97;8.27;;;19.90;42.90;;;;;;5056891;28;46408;-61
2022/06/03 06:23:21;;;;;;;12.77;7.73;;;19.60;44.90;;;;;;5053234;28;46434;-61
2022/06/03 06:25:55;;;;;;;19.00;8.10;;;19.50;45.20;;;;;;5050392;28;46587;-61
2022/06/03 06:28:24;;;;;;;15.87;8.20;;;19.60;45.00;;;;;;5052466;28;46434;-61
2022/06/03 06:31:03;;;;;;;12.03;7.47;;;19.80;44.30;;;;;;5053536;28;46350;-60
2022/06/03 06:33:48;;;;;;;13.10;7.47;;;19.90;44.20;;;;;;5050228;28;46370;-60
2022/06/03 06:36:48;;;;;;;8.97;7.70;;;19.90;44.40;;;;;;5054531;28;46294;-62
2022/06/03 06:39:25;;;;;;;10.80;7.40;;;20.10;44.90;;;;;;5050643;28;47281;-60
2022/06/03 06:42:12;;;;;;;12.83;7.37;;;20.60;44.80;;;;;;5056026;28;46594;-61
2022/06/03 06:45:03;;;;;;;8.87;6.63;;;21.00;44.60;;;;;;5045134;28;45773;-60
2022/06/03 06:47:42;;;;;;;12.07;6.80;;;21.20;44.60;;;;;;5051829;28;45868;-61
2022/06/03 06:50:19;;;;;;;12.20;6.30;;;21.40;44.40;;;;;;5047546;28;46434;-61
2022/06/03 06:52:58;;;;;;;12.50;7.40;;;21.40;44.50;;;;;;5052060;28;46400;-62
2022/06/03 06:55:41;;;;;;;11.33;6.10;;;21.20;45.40;;;;;;5054716;28;46369;-62
2022/06/03 06:58:52;;;;;;;27.63;7.50;;;21.20;45.50;;;;;;5054583;28;45877;-62
2022/06/03 07:01:29;;;;;;;8.50;6.90;;;21.40;45.90;;;;;;5041899;28;47053;-61
2022/06/03 07:04:02;;;;;;;8.57;6.23;;;21.40;45.90;;;;;;5053921;28;46085;-61
2022/06/03 07:06:41;;;;;;;11.77;6.87;;;21.50;46.20;;;;;;5051064;28;46580;-61
2022/06/03 07:09:23;;;;;;;12.17;6.90;;;21.40;46.70;;;;;;5054648;28;45827;-62
2022/06/03 07:11:59;;;;;;;11.63;6.80;;;21.50;46.80;;;;;;5050869;28;47206;-61
2022/06/03 07:14:31;;;;;;;11.03;6.50;;;21.50;46.30;;;;;;5048778;28;46441;-62
2022/06/03 07:20:08;;;;;;;8.60;6.33;;;21.80;45.80;;;;;;5052741;28;45786;-62
2022/06/03 07:22:42;;;;;;;7.97;6.23;;;21.60;46.30;;;;;;5050600;28;48101;-62
2022/06/03 07:25:20;;;;;;;10.73;5.90;;;21.60;46.50;;;;;;5050949;28;46385;-62
2022/06/03 07:27:57;;;;;;;6.80;5.63;;;21.80;46.30;;;;;;5052649;28;46530;-62
2022/06/03 07:30:49;;;;;;;13.50;6.63;;;21.80;46.10;;;;;;5048204;28;46342;-61
2022/06/03 07:33:32;;;;;;;8.47;6.60;;;22.00;45.70;;;;;;5052345;28;46703;-61
2022/06/03 07:36:25;;;;;;;11.07;7.17;;;22.10;45.50;;;;;;5058341;28;46377;-62
2022/06/03 07:39:22;;;;;;;10.30;6.37;;;22.00;46.10;;;;;;5050951;28;46302;-60
2022/06/03 07:41:55;;;;;;;12.50;7.07;;;22.20;45.80;;;;;;5043762;28;46439;-61
2022/06/03 07:44:28;;;;;;;8.27;6.93;;;22.20;45.90;;;;;;5051310;28;47442;-61
2022/06/03 07:47:00;;;;;;;12.93;6.83;;;22.20;45.90;;;;;;5053312;28;46376;-61
2022/06/03 07:49:29;;;;;;;9.63;5.87;;;22.30;45.60;;;;;;5051546;28;46554;-61
2022/06/03 07:52:05;;;;;;;6.50;5.20;;;22.60;44.90;;;;;;5051065;28;46471;-61
2022/06/03 07:54:34;;;;;;;9.43;6.57;;;22.60;44.40;;;;;;5055811;28;46390;-61
2022/06/03 07:57:03;;;;;;;13.20;5.80;;;22.70;44.30;;;;;;5055135;28;46447;-62
2022/06/03 07:59:32;;;;;;;7.63;5.67;;;22.70;44.30;;;;;;5051296;28;45798;-61
2022/06/03 08:02:05;;;;;;;7.70;5.00;;;22.60;44.50;;;;;;5052533;28;46574;-62
2022/06/03 08:04:34;;;;;;;12.13;6.30;;;22.60;44.40;;;;;;5049414;28;46378;-62
2022/06/03 08:12:38;;;;;;;8.37;5.33;;;23.10;43.70;;;;;;5047284;28;46374;-61
2022/06/03 08:15:20;;;;;;;9.50;4.90;;;23.20;43.80;;;;;;5047718;28;47339;-61
2022/06/03 08:17:48;;;;;;;6.03;3.87;;;23.20;43.60;;;;;;5066431;28;46388;-62
2022/06/03 08:20:16;;;;;;;7.03;4.20;;;23.30;42.90;;;;;;5065044;28;46408;-62
2022/06/03 08:22:44;;;;;;;5.37;3.80;;;23.40;42.40;;;;;;5067996;28;46773;-62
2022/06/03 08:25:15;;;;;;;5.47;3.73;;;23.50;42.00;;;;;;5064324;28;47120;-61
2022/06/03 08:27:41;;;;;;;5.50;3.33;;;23.60;41.50;;;;;;5067303;28;45861;-63
2022/06/03 08:30:10;;;;;;;11.43;4.10;;;23.40;41.30;;;;;;5068271;28;46774;-63
2022/06/03 08:32:40;;;;;;;4.80;2.90;;;23.40;41.60;;;;;;5068050;28;47033;-62
2022/06/03 08:35:14;;;;;;;5.40;3.37;;;23.40;41.40;;;;;;5067012;28;47254;-62
2022/06/03 08:37:53;;;;;;;6.03;4.13;;;23.50;40.40;;;;;;5068696;28;46235;-62
2022/06/03 08:40:22;;;;;;;4.60;3.20;;;23.70;40.00;;;;;;5066275;28;46432;-62
2022/06/03 08:43:19;;;;;;;4.47;3.13;;;23.80;39.70;;;;;;5068959;27;46411;-62
2022/06/03 08:46:24;;;;;;;4.47;3.60;;;24.00;39.90;;;;;;5066699;28;47083;-63
2022/06/03 08:48:52;;;;;;;7.07;4.60;;;24.20;39.10;;;;;;5066219;28;46692;-63
2022/06/03 08:51:23;;;;;;;6.00;4.63;;;24.40;38.50;;;;;;5067327;27;46801;-63
2022/06/03 08:53:59;;;;;;;7.70;4.97;;;24.60;38.40;;;;;;5067032;28;46398;-68
2022/06/03 08:56:31;;;;;;;7.50;4.80;;;24.60;39.20;;;;;;5065740;28;46528;-62
2022/06/03 08:58:57;;;;;;;5.47;4.57;;;24.40;40.30;;;;;;5064349;27;46440;-61
2022/06/03 09:01:27;;;;;;;7.17;4.37;;;24.70;40.00;;;;;;5067908;28;46600;-61
2022/06/03 09:04:01;;;;;;;6.37;4.70;;;24.70;40.00;;;;;;5071591;28;45976;-63
2022/06/03 09:06:45;;;;;;;5.63;4.00;;;24.60;40.10;;;;;;5065582;28;47056;-63
2022/06/03 09:09:39;;;;;;;13.50;4.33;;;24.70;39.80;;;;;;5065614;28;45822;-63
2022/06/03 09:12:09;;;;;;;7.60;4.20;;;24.80;39.30;;;;;;5065570;28;46790;-60
2022/06/03 09:14:38;;;;;;;7.47;4.40;;;24.70;40.90;;;;;;5064826;27;46450;-63
2022/06/03 09:17:12;;;;;;;5.53;3.87;;;24.60;39.30;;;;;;5068254;28;46444;-62
2022/06/03 09:19:43;;;;;;;8.43;4.13;;;24.80;39.40;;;;;;5067035;27;46431;-61
2022/06/03 09:22:19;;;;;;;13.47;4.50;;;24.90;39.30;;;;;;5068494;28;45893;-61
2022/06/03 09:24:45;;;;;;;5.77;4.00;;;24.60;38.60;;;;;;5068788;28;46356;-61
2022/06/03 09:27:16;;;;;;;7.90;4.20;;;24.60;39.20;;;;;;5068482;27;46727;-62
2022/06/03 09:29:48;;;;;;;9.13;4.47;;;24.50;39.60;;;;;;5068697;28;46488;-62
2022/06/03 09:32:17;;;;;;;6.70;4.57;;;24.70;39.40;;;;;;5067798;28;46427;-62
2022/06/03 09:34:48;;;;;;;5.00;3.70;;;24.90;38.90;;;;;;5068920;28;46385;-63
2022/06/03 09:37:30;;;;;;;9.30;4.63;;;25.00;38.70;;;;;;5068038;28;47123;-62
2022/06/03 09:39:57;;;;;;;11.93;4.83;;;25.00;38.80;;;;;;5065972;28;46372;-64
2022/06/03 09:42:26;;;;;;;5.90;4.43;;;25.00;38.70;;;;;;5066389;28;46485;-64
2022/06/03 09:44:53;;;;;;;8.37;4.10;;;25.10;38.70;;;;;;5067757;28;46631;-64
2022/06/03 09:47:21;;;;;;;5.50;3.63;;;25.20;38.80;;;;;;5067313;28;46457;-64
2022/06/03 09:49:50;;;;;;;6.60;3.97;;;25.40;39.00;;;;;;5065729;28;46408;-63
2022/06/03 09:52:20;;;;;;;5.77;3.37;;;25.50;38.20;;;;;;5066460;28;46451;-65
2022/06/03 09:54:47;;;;;;;10.93;3.63;;;25.60;38.20;;;;;;5066793;28;46384;-63
2022/06/03 09:57:33;;;;;;;6.60;3.73;;;25.70;37.50;;;;;;5067965;28;46072;-64
2022/06/03 10:00:03;;;;;;;12.30;3.83;;;25.70;37.60;;;;;;5065167;28;46712;-63
2022/06/03 10:02:31;;;;;;;8.10;3.63;;;25.80;37.20;;;;;;5065085;28;46377;-67
2022/06/03 10:04:59;;;;;;;9.33;4.50;;;25.90;36.80;;;;;;5066531;28;46657;-63
2022/06/03 10:07:26;;;;;;;7.93;3.73;;;26.00;36.60;;;;;;5067203;28;46512;-62
2022/06/03 10:12:56;;;;;;;6.77;3.90;;;25.80;37.10;;;;;;5069022;28;46457;-63
2022/06/03 10:15:44;;;;;;;8.23;3.83;;;25.80;37.00;;;;;;5067214;27;46591;-63
2022/06/03 10:18:31;;;;;;;5.07;3.87;;;26.10;36.80;;;;;;5070137;28;48106;-63
2022/06/03 10:21:17;;;;;;;10.57;3.93;;;26.10;36.40;;;;;;5078023;28;46660;-63
2022/06/03 10:23:52;;;;;;;12.97;3.90;;;25.90;36.90;;;;;;5070803;28;46441;-62
2022/06/03 10:26:20;;;;;;;7.23;4.10;;;25.80;37.00;;;;;;5072456;28;46566;-63
2022/06/03 10:28:49;;;;;;;5.43;3.67;;;25.90;36.60;;;;;;5071951;28;46433;-61
2022/06/03 10:31:25;;;;;;;5.10;3.23;;;25.90;36.50;;;;;;5071487;28;46431;-61
2022/06/03 10:33:53;;;;;;;6.60;3.33;;;25.90;36.60;;;;;;5070475;28;46431;-62
2022/06/03 10:36:24;;;;;;;6.97;3.87;;;26.20;36.10;;;;;;5072170;28;46614;-63
2022/06/03 10:38:51;;;;;;;10.77;3.90;;;26.30;35.30;;;;;;5069853;28;46822;-62
2022/06/03 10:41:17;;;;;;;8.50;3.63;;;26.50;35.20;;;;;;5070777;28;46392;-63
2022/06/03 10:43:43;;;;;;;9.80;4.93;;;26.60;34.80;;;;;;5069620;28;46456;-63
2022/06/03 10:46:18;;;;;;;8.77;4.00;;;26.50;34.70;;;;;;5071310;28;46579;-63
2022/06/03 10:48:45;;;;;;;11.47;4.13;;;26.50;35.00;;;;;;5069058;28;46573;-62
2022/06/03 11:02:37;;;;;;;6.80;3.60;;;26.80;33.30;;;;;;5068416;28;46160;-63
2022/06/03 11:05:07;;;;;;;5.30;3.17;;;26.80;33.30;;;;;;5069921;28;46431;-61
2022/06/03 11:07:35;;;;;;;7.13;3.10;;;27.00;32.30;;;;;;5070980;28;46447;-61
2022/06/03 11:10:13;;;;;;;7.83;4.10;;;27.30;32.10;;;;;;5062332;28;46365;-62
2022/06/03 11:12:40;;;;;;;6.70;4.20;;;27.60;31.80;;;;;;5064148;28;46520;-62
2022/06/03 11:15:31;;;;;;;5.13;3.03;;;27.70;30.60;;;;;;5067514;28;46453;-63
2022/06/03 11:18:00;;;;;;;6.20;3.47;;;27.60;30.50;;;;;;5059047;28;46755;-61
2022/06/03 11:20:36;;;;;;;5.70;3.23;;;27.80;30.00;;;;;;5066769;28;46405;-62
2022/06/03 11:23:04;;;;;;;7.63;3.10;;;27.80;29.20;;;;;;5067392;28;46560;-61
2022/06/03 11:25:31;;;;;;;4.50;3.40;;;27.90;28.90;;;;;;5066741;28;46416;-62
2022/06/03 11:28:05;;;;;;;7.90;3.07;;;27.80;29.00;;;;;;5067701;28;46315;-63
2022/06/03 11:30:51;;;;;;;6.80;3.30;;;27.60;28.70;;;;;;5064816;27;46307;-62
2022/06/03 11:33:30;;;;;;;6.93;3.20;;;27.70;28.80;;;;;;5067911;28;46359;-62
2022/06/03 11:35:56;;;;;;;10.63;2.80;;;27.50;29.00;;;;;;5067501;28;46408;-62
2022/06/03 11:38:53;;;;;;;5.50;3.40;;;27.60;29.20;;;;;;5067943;28;46737;-63
2022/06/03 11:41:26;;;;;;;5.50;3.10;;;27.60;29.40;;;;;;5066887;28;47284;-61
2022/06/03 11:44:18;;;;;;;6.70;3.80;;;27.60;29.20;;;;;;5065187;28;46448;-61
2022/06/03 11:46:51;;;;;;;8.67;3.50;;;27.50;29.10;;;;;;5067399;28;46454;-62
2022/06/03 11:49:19;;;;;;;5.40;3.70;;;27.50;30.20;;;;;;5068243;28;46404;-61
2022/06/03 11:51:46;;;;;;;6.00;3.80;;;27.60;29.60;;;;;;5068618;28;47261;-61
2022/06/03 11:54:15;;;;;;;5.17;3.40;;;27.60;29.30;;;;;;5071051;28;46646;-66
2022/06/03 11:56:43;;;;;;;7.50;3.90;;;27.80;29.00;;;;;;5069941;28;46403;-61
2022/06/03 11:59:37;;;;;;;7.50;4.20;;;28.20;28.50;;;;;;5063867;28;45908;-61
2022/06/03 12:02:13;;;;;;;7.87;3.30;;;28.40;27.80;;;;;;5068761;28;47089;-61
2022/06/03 12:04:47;;;;;;;8.10;3.13;;;28.60;27.90;;;;;;5068393;28;46500;-62
2022/06/03 12:07:31;;;;;;;13.03;3.57;;;28.80;26.60;;;;;;5068008;28;45829;-61
2022/06/03 12:10:03;;;;;;;6.43;3.70;;;28.90;26.40;;;;;;5064750;28;46396;-60
2022/06/03 12:15:26;;;;;;;7.97;3.07;;;28.80;26.40;;;;;;5065286;28;46393;-62
2022/06/03 12:17:52;;;;;;;5.80;3.03;;;28.90;26.30;;;;;;5068612;28;46748;-61
2022/06/03 12:20:30;;;;;;;10.63;3.67;;;29.10;26.20;;;;;;5068127;28;46656;-62
2022/06/03 12:22:56;;;;;;;4.97;3.07;;;29.20;25.60;;;;;;5068564;28;46291;-61
2022/06/03 12:25:37;;;;;;;5.30;2.90;;;29.30;25.70;;;;;;5069905;28;46389;-62
2022/06/03 12:28:05;;;;;;;6.53;3.20;;;29.40;25.30;;;;;;5068948;28;46429;-61
2022/06/03 12:30:56;;;;;;;6.30;3.50;;;29.10;25.30;;;;;;5067670;28;46872;-63
2022/06/03 12:33:42;;;;;;;6.87;3.20;;;29.00;25.90;;;;;;5060784;28;46366;-61
2022/06/03 12:36:39;;;;;;;7.80;3.40;;;29.10;25.60;;;;;;5066589;28;46460;-61
2022/06/03 12:39:08;;;;;;;8.17;3.33;;;29.00;25.40;;;;;;5063448;28;45863;-62
2022/06/03 12:41:46;;;;;;;10.77;3.57;;;29.00;25.20;;;;;;5066307;28;46381;-62
2022/06/03 12:44:40;;;;;;;9.57;3.10;;;28.80;25.60;;;;;;5069091;28;46379;-61
2022/06/03 12:47:36;;;;;;;5.87;3.27;;;28.60;26.60;;;;;;5066787;28;46440;-62
2022/06/03 12:50:04;;;;;;;5.23;3.00;;;28.60;26.40;;;;;;5068795;28;46892;-62
2022/06/03 12:52:30;;;;;;;5.77;2.90;;;28.80;26.00;;;;;;5065798;28;46688;-63
2022/06/03 12:55:02;;;;;;;11.20;2.90;;;28.90;25.80;;;;;;5064530;28;46855;-60
2022/06/03 12:57:48;;;;;;;7.93;3.10;;;28.80;26.00;;;;;;5067195;28;46652;-61
2022/06/03 13:00:34;;;;;;;5.40;3.00;;;28.60;25.70;;;;;;5067518;28;46525;-63
2022/06/03 13:03:02;;;;;;;4.33;2.93;;;28.60;25.70;;;;;;5068390;28;46382;-61
2022/06/03 13:05:46;;;;;;;6.00;4.13;;;28.70;25.60;;;;;;5068133;27;46352;-63
2022/06/03 13:08:27;;;;;;;4.63;3.40;;;28.50;26.10;;;;;;5067562;28;46423;-63
2022/06/03 13:11:30;;;;;;;8.57;3.50;;;28.50;26.60;;;;;;5068597;28;46451;-62
2022/06/03 13:13:56;;;;;;;5.97;2.80;;;28.50;27.00;;;;;;5067654;28;45918;-65
2022/06/03 13:16:37;;;;;;;7.00;3.80;;;28.60;26.60;;;;;;5064742;27;46468;-62
2022/06/03 13:19:18;;;;;;;6.37;3.60;;;28.50;26.70;;;;;;5066196;28;46408;-61
2022/06/03 13:22:02;;;;;;;7.27;3.10;;;28.50;27.10;;;;;;5065348;28;46470;-62
2022/06/03 13:24:33;;;;;;;6.00;3.20;;;28.50;26.90;;;;;;5064463;28;46455;-62
2022/06/03 13:27:07;;;;;;;6.97;3.43;;;28.50;26.60;;;;;;5065397;28;47668;-62
2022/06/03 13:29:55;;;;;;;6.00;3.53;;;28.40;26.70;;;;;;5064405;28;46416;-61
2022/06/03 13:32:34;;;;;;;6.10;3.00;;;28.40;26.00;;;;;;5064040;28;46343;-62
2022/06/03 13:35:25;;;;;;;7.63;2.80;;;28.40;26.10;;;;;;5067264;28;46418;-62
2022/06/03 13:37:58;;;;;;;7.63;3.30;;;28.30;25.90;;;;;;5068246;28;46271;-62
2022/06/03 13:40:26;;;;;;;6.80;3.30;;;28.50;26.00;;;;;;5065999;28;46413;-62
2022/06/03 13:42:58;;;;;;;7.93;2.77;;;28.40;26.30;;;;;;5067820;28;46383;-61
2022/06/03 13:45:44;;;;;;;6.97;3.67;;;28.50;26.00;;;;;;5067916;28;46596;-62
2022/06/03 13:48:41;;;;;;;6.53;2.93;;;28.30;26.30;;;;;;5067649;28;47800;-62
2022/06/03 13:51:33;;;;;;;7.07;3.37;;;28.50;26.40;;;;;;5067202;27;46353;-61
2022/06/03 13:54:15;;;;;;;5.53;3.40;;;28.60;26.70;;;;;;5071828;28;46329;-63
2022/06/03 13:56:56;;;;;;;6.00;3.10;;;28.50;26.50;;;;;;5071646;28;46439;-62
2022/06/03 13:59:23;;;;;;;5.87;2.93;;;28.20;27.00;;;;;;5069565;28;46452;-61
2022/06/03 14:01:52;;;;;;;5.30;3.30;;;28.10;27.60;;;;;;5071024;28;46428;-62
2022/06/03 14:04:24;;;;;;;5.07;3.20;;;28.10;27.60;;;;;;5070126;27;46420;-62
2022/06/03 14:07:06;;;;;;;5.80;3.30;;;27.90;27.50;;;;;;5071673;28;46352;-63
2022/06/03 14:09:51;;;;;;;12.70;3.43;;;27.70;28.30;;;;;;5070062;28;46356;-62
2022/06/03 14:12:23;;;;;;;4.87;3.33;;;27.70;28.30;;;;;;5070094;28;46476;-62
2022/06/03 14:15:12;;;;;;;8.67;3.30;;;27.70;28.60;;;;;;5069239;28;46266;-62
2022/06/03 14:17:58;;;;;;;5.20;2.93;;;27.60;29.60;;;;;;5069957;28;46519;-62
2022/06/03 14:20:43;;;;;;;5.97;3.63;;;27.50;29.10;;;;;;5070382;28;47890;-61
2022/06/03 14:23:08;;;;;;;8.93;2.80;;;27.20;29.30;;;;;;5070219;28;46398;-62